Callville Bay, Nevada
Current Conditions -  °F | °C
As of 10:56 PM on Tuesday 21 Oct 2014 (Local Time) from KHND Reporting Station
Clear Clear  
Wind Chill: 68°   Ceiling: Unl
Heat Index: 68°   Visibility: 10mi
Dew Point: 21°   Wind: 12mph
Humidity: 17%   Direction: 200°SSW
Pressure: 29.91"   Gusts: NA
Location:  35.8437°N, 115.134°W
Report Text: KHND 220556Z AUTO 20010KT 10SM CLR 20/M06 A2991 RMK AO2 51014 T02001061 10283 20205 SLP110
Loading
Personal Weather Stations






























Interactive Weather Map
Tropical Storm Tracking
New forecast layout! Learn more

10-Day Weather Forecast

Advertisements
Track Severe Weather on mobile